Time;durP1;ratioP1;P1;durP2;ratioP2;P2;SDS_P1;SDS_P2;PMS_P1;PMS_P2;Temp;Humidity;BMP_temperature;BMP_pressure;BME280_temperature;BME280_humidity;BME280_pressure;Samples;Min_cycle;Max_cycle;Signal;HPM_P1;HPM_P2
2021/07/05 00:02:22;;;;;;;2.15;1.55;;;26.30;45.40;;;;;;20914379;28;20045;-69
2021/07/05 00:12:25;;;;;;;3.10;2.38;;;26.10;45.10;;;;;;20927744;28;20102;-69
2021/07/05 00:22:26;;;;;;;2.80;1.77;;;25.90;45.40;;;;;;20926883;28;20110;-69
2021/07/05 00:32:28;;;;;;;2.10;1.80;;;25.80;46.20;;;;;;20927487;28;20071;-70
2021/07/05 00:42:30;;;;;;;5.68;2.10;;;25.70;46.50;;;;;;20926521;28;20400;-67
2021/07/05 00:52:32;;;;;;;;;;;25.60;46.00;;;;;;20908193;28;20232;-66
2021/07/05 01:02:34;;;;;;;3.65;1.90;;;25.50;45.40;;;;;;20925216;28;19952;-64
2021/07/05 01:12:38;;;;;;;2.72;1.60;;;25.50;45.90;;;;;;20921962;28;20049;-62
2021/07/05 01:22:41;;;;;;;3.60;1.70;;;25.50;46.10;;;;;;20903732;28;20136;-61
2021/07/05 01:32:52;;;;;;;2.97;1.75;;;25.50;45.70;;;;;;20920701;28;20660;-58
2021/07/05 01:42:59;;;;;;;2.00;1.40;;;25.50;46.10;;;;;;20903358;28;20049;-59
2021/07/05 01:53:12;;;;;;;3.53;1.70;;;25.40;46.30;;;;;;20919269;28;20075;-68
2021/07/05 02:03:17;;;;;;;2.88;1.70;;;25.30;45.90;;;;;;20919255;28;20041;-68
2021/07/05 02:13:24;;;;;;;5.47;1.90;;;25.30;46.20;;;;;;20917802;28;20049;-68
2021/07/05 02:23:27;;;;;;;1.90;1.40;;;25.20;45.90;;;;;;20917231;28;20053;-58
2021/07/05 02:33:31;;;;;;;2.63;1.73;;;25.20;46.10;;;;;;20916652;28;20053;-57
2021/07/05 02:43:33;;;;;;;3.67;2.03;;;25.10;46.20;;;;;;20915912;28;20045;-69
2021/07/05 02:53:37;;;;;;;5.43;1.80;;;25.10;47.00;;;;;;20915195;28;20053;-59
2021/07/05 03:03:44;;;;;;;4.10;1.92;;;24.90;46.90;;;;;;20914253;28;20408;-68
2021/07/05 03:14:06;;;;;;;3.40;2.50;;;24.90;47.30;;;;;;20913506;28;20053;-59
2021/07/05 03:24:16;;;;;;;2.50;2.03;;;24.90;47.10;;;;;;20912899;28;20040;-67
2021/07/05 03:34:26;;;;;;;4.88;2.10;;;25.00;46.90;;;;;;20912424;28;20060;-61
2021/07/05 03:44:34;;;;;;;3.95;2.92;;;25.00;47.10;;;;;;20936966;28;20048;-67
2021/07/05 03:54:41;;;;;;;4.55;2.33;;;24.90;47.40;;;;;;20939062;28;20131;-66
2021/07/05 04:04:47;;;;;;;4.95;1.92;;;24.80;47.20;;;;;;20940039;28;20055;-63
2021/07/05 04:14:52;;;;;;;4.72;2.53;;;24.70;48.00;;;;;;20938784;28;20053;-68
2021/07/05 04:24:56;;;;;;;6.03;2.80;;;24.60;48.00;;;;;;20937946;28;20136;-68
2021/07/05 04:35:08;;;;;;;6.15;2.42;;;24.40;48.40;;;;;;20938519;28;20497;-69
2021/07/05 04:45:12;;;;;;;4.63;2.35;;;24.40;48.50;;;;;;20919801;28;20092;-67
2021/07/05 04:55:16;;;;;;;4.72;2.65;;;24.20;48.90;;;;;;20925446;28;20503;-65
2021/07/05 05:05:18;;;;;;;4.35;2.47;;;24.00;49.50;;;;;;20923458;28;20049;-67
2021/07/05 05:15:20;;;;;;;6.75;2.50;;;23.90;49.50;;;;;;20922402;28;20053;-67
2021/07/05 05:25:22;;;;;;;4.85;2.30;;;23.70;49.80;;;;;;20921527;28;20053;-66
2021/07/05 05:35:27;;;;;;;4.53;2.53;;;23.60;49.60;;;;;;20922262;28;20049;-69
2021/07/05 05:45:28;;;;;;;3.80;2.70;;;23.60;49.60;;;;;;20904227;28;20052;-60
2021/07/05 05:55:30;;;;;;;2.97;2.22;;;23.50;50.10;;;;;;20918680;28;20071;-58
2021/07/05 06:05:34;;;;;;;4.35;2.22;;;23.50;50.10;;;;;;20917321;28;20041;-68
2021/07/05 06:15:36;;;;;;;3.30;2.20;;;23.60;50.00;;;;;;20917258;28;20124;-62
2021/07/05 06:25:38;;;;;;;;;;;23.60;49.90;;;;;;20917803;28;20045;-62
2021/07/05 06:35:42;;;;;;;3.72;2.40;;;23.60;49.60;;;;;;20915991;28;19928;-57
2021/07/05 06:45:44;;;;;;;5.72;2.38;;;23.70;49.70;;;;;;20915676;28;20128;-65
2021/07/05 06:55:47;;;;;;;7.13;2.30;;;24.00;49.10;;;;;;20918280;28;20120;-57
2021/07/05 07:05:51;;;;;;;5.72;2.15;;;24.30;48.60;;;;;;20914673;28;20041;-69
2021/07/05 07:15:56;;;;;;;4.88;2.30;;;25.20;47.10;;;;;;20915301;28;20506;-66
2021/07/05 07:25:58;;;;;;;6.53;1.88;;;26.00;46.20;;;;;;20913500;28;20095;-57
2021/07/05 07:36:02;;;;;;;4.38;2.20;;;27.00;44.00;;;;;;20911768;28;20056;-63
2021/07/05 07:46:05;;;;;;;4.13;2.42;;;27.70;43.30;;;;;;20912697;28;20437;-66
2021/07/05 07:56:10;;;;;;;4.82;2.80;;;28.30;42.20;;;;;;20911350;28;20140;-71
2021/07/05 08:06:12;;;;;;;12.20;2.70;;;28.70;41.10;;;;;;20911209;28;20056;-71
2021/07/05 08:16:17;;;;;;;7.10;2.70;;;29.00;40.60;;;;;;20910434;28;20199;-61
2021/07/05 08:26:19;;;;;;;7.13;2.75;;;29.60;39.40;;;;;;20918417;28;20207;-67
2021/07/05 08:36:21;;;;;;;3.55;1.85;;;30.20;38.00;;;;;;20925897;28;20455;-70
2021/07/05 08:46:24;;;;;;;4.63;1.85;;;30.20;37.70;;;;;;20924701;28;20559;-70
2021/07/05 08:56:26;;;;;;;5.00;2.95;;;30.70;37.00;;;;;;20906297;28;20052;-68
2021/07/05 09:06:30;;;;;;;3.33;1.80;;;31.10;36.00;;;;;;20923390;28;20413;-58
2021/07/05 09:16:35;;;;;;;4.93;1.90;;;31.10;35.70;;;;;;20922224;28;20402;-59
2021/07/05 09:26:42;;;;;;;4.25;1.75;;;31.30;35.70;;;;;;20920749;28;20041;-70
2021/07/05 09:36:45;;;;;;;10.57;7.95;;;31.70;35.10;;;;;;20919895;28;20429;-66
2021/07/05 09:46:58;;;;;;;4.55;2.50;;;31.90;34.30;;;;;;20919831;28;20049;-66
2021/07/05 09:56:59;;;;;;;4.85;2.90;;;31.50;35.20;;;;;;20919094;28;20049;-69
2021/07/05 10:07:03;;;;;;;6.13;1.90;;;31.90;34.30;;;;;;20918097;28;20048;-65
2021/07/05 10:17:17;;;;;;;3.95;1.90;;;31.90;34.60;;;;;;20917474;28;20060;-69
2021/07/05 10:27:19;;;;;;;2.80;1.80;;;31.90;34.60;;;;;;20915782;28;20128;-68
2021/07/05 10:37:43;;;;;;;3.35;2.25;;;32.10;34.20;;;;;;20915402;28;20056;-66
2021/07/05 10:47:55;;;;;;;3.00;1.65;;;32.10;33.40;;;;;;20913783;28;20493;-69
2021/07/05 10:57:57;;;;;;;4.68;1.55;;;32.20;32.10;;;;;;20913411;28;20461;-65
2021/07/05 11:08:20;;;;;;;5.68;1.90;;;32.20;32.00;;;;;;20914976;28;20048;-58
2021/07/05 11:18:40;;;;;;;4.30;1.63;;;32.20;31.90;;;;;;20913661;28;20083;-66
2021/07/05 11:28:42;;;;;;;5.05;2.40;;;32.30;32.00;;;;;;20913210;28;20132;-65
2021/07/05 11:39:01;;;;;;;4.05;1.88;;;32.20;31.30;;;;;;20912428;28;20081;-66
2021/07/05 11:49:06;;;;;;;3.63;1.85;;;32.30;30.90;;;;;;20911881;28;20084;-69
2021/07/05 11:59:24;;;;;;;3.50;2.47;;;32.40;30.30;;;;;;20915163;28;20075;-58
2021/07/05 12:09:29;;;;;;;3.75;1.80;;;32.40;29.70;;;;;;20927219;28;20051;-62
2021/07/05 12:19:33;;;;;;;6.20;5.47;;;32.50;29.60;;;;;;20909580;28;20069;-66
2021/07/05 12:29:40;;;;;;;5.97;2.60;;;32.60;29.80;;;;;;20925807;28;20049;-61
2021/07/05 12:39:43;;;;;;;2.80;1.92;;;32.70;29.30;;;;;;20925047;28;20053;-68
2021/07/05 12:49:46;;;;;;;4.40;2.80;;;32.80;29.10;;;;;;20924818;28;20110;-59
2021/07/05 13:00:07;;;;;;;3.95;2.20;;;32.80;28.60;;;;;;20924827;28;20110;-66
2021/07/05 13:10:09;;;;;;;3.30;1.83;;;33.10;28.60;;;;;;20921907;28;20497;-64
2021/07/05 13:20:18;;;;;;;3.20;2.20;;;33.10;28.40;;;;;;20921663;28;20080;-65
2021/07/05 13:30:22;;;;;;;3.10;2.22;;;33.20;27.70;;;;;;20919811;28;20072;-64
2021/07/05 13:40:25;;;;;;;3.15;2.00;;;33.30;26.70;;;;;;20919149;28;20517;-61
2021/07/05 13:50:50;;;;;;;3.38;1.90;;;33.40;26.10;;;;;;20919131;28;20045;-67
2021/07/05 14:00:55;;;;;;;3.47;2.25;;;33.40;25.70;;;;;;20917550;28;20083;-67
2021/07/05 14:11:00;;;;;;;4.28;2.03;;;33.60;25.50;;;;;;20917474;28;20505;-61
2021/07/05 14:21:02;;;;;;;3.13;2.20;;;33.80;24.30;;;;;;20915783;28;20084;-69
2021/07/05 14:31:05;;;;;;;3.25;1.92;;;33.80;24.90;;;;;;20915612;28;20053;-60
2021/07/05 14:41:07;;;;;;;5.40;4.03;;;33.80;24.50;;;;;;20914831;28;20048;-59
2021/07/05 14:51:08;;;;;;;4.18;1.42;;;33.80;24.40;;;;;;20915238;28;20076;-63
2021/07/05 15:01:09;;;;;;;5.57;3.35;;;33.70;24.30;;;;;;20914523;28;20045;-62
2021/07/05 15:11:11;;;;;;;6.80;4.05;;;33.90;24.10;;;;;;20914882;28;20075;-67
2021/07/05 15:21:12;;;;;;;2.47;1.30;;;33.90;24.50;;;;;;20912927;28;20049;-67
2021/07/05 15:31:14;;;;;;;2.58;1.35;;;33.80;24.40;;;;;;20912275;28;20048;-68
2021/07/05 15:41:17;;;;;;;1.98;1.10;;;33.90;24.70;;;;;;20911755;28;20049;-58
2021/07/05 15:51:19;;;;;;;1.83;0.80;;;33.90;24.60;;;;;;20894192;28;20091;-66
2021/07/05 16:01:21;;;;;;;3.08;1.15;;;33.80;24.40;;;;;;20910829;28;20420;-65
2021/07/05 16:11:23;;;;;;;2.85;1.45;;;33.70;24.70;;;;;;20910799;28;20049;-69
2021/07/05 16:21:25;;;;;;;1.45;1.10;;;33.70;24.70;;;;;;20910759;28;20222;-57
2021/07/05 16:31:27;;;;;;;2.78;1.10;;;33.60;25.20;;;;;;20909766;28;20089;-61
2021/07/05 16:41:29;;;;;;;2.83;1.13;;;33.60;25.30;;;;;;20892960;28;20052;-59
2021/07/05 16:51:42;;;;;;;2.47;1.17;;;33.60;25.20;;;;;;20923774;28;20045;-68
2021/07/05 17:01:44;;;;;;;2.42;1.20;;;33.50;26.00;;;;;;20928476;28;20132;-57
2021/07/05 17:11:46;;;;;;;2.80;1.10;;;33.40;25.90;;;;;;20922637;28;20142;-68
2021/07/05 17:21:47;;;;;;;1.98;1.33;;;33.20;26.60;;;;;;20920809;28;20107;-58
2021/07/05 17:31:50;;;;;;;3.25;1.33;;;33.20;26.80;;;;;;20919863;28;20080;-59
2021/07/05 17:41:52;;;;;;;4.60;1.60;;;33.10;27.20;;;;;;20919919;28;20128;-61
2021/07/05 17:51:53;;;;;;;3.30;1.50;;;33.10;27.30;;;;;;20918805;28;20049;-60
2021/07/05 18:01:58;;;;;;;6.15;4.10;;;33.00;27.90;;;;;;20918061;28;20056;-69
2021/07/05 18:12:00;;;;;;;3.55;1.52;;;32.80;28.30;;;;;;20919946;28;20045;-58
2021/07/05 18:22:03;;;;;;;3.38;2.60;;;32.70;28.80;;;;;;20917166;28;20053;-56
2021/07/05 18:32:05;;;;;;;2.60;1.80;;;32.50;29.00;;;;;;20916014;28;20493;-58
2021/07/05 18:42:07;;;;;;;5.35;2.00;;;32.40;29.30;;;;;;20913272;28;20501;-56
2021/07/05 18:52:08;;;;;;;2.58;1.90;;;32.20;29.20;;;;;;20912474;28;20071;-57
2021/07/05 19:02:10;;;;;;;3.38;1.52;;;32.00;28.90;;;;;;20913411;28;20059;-65
2021/07/05 19:12:12;;;;;;;2.08;1.17;;;31.80;29.10;;;;;;20911598;28;20440;-64
2021/07/05 19:22:14;;;;;;;2.08;0.80;;;31.60;28.20;;;;;;20911997;28;20067;-69
2021/07/05 19:32:16;;;;;;;2.08;1.48;;;31.40;25.80;;;;;;20911937;28;20045;-58
2021/07/05 19:42:18;;;;;;;3.28;1.75;;;31.20;26.00;;;;;;20911683;28;20055;-65
2021/07/05 19:52:20;;;;;;;1.70;1.20;;;31.00;27.10;;;;;;20911002;28;20489;-57
2021/07/05 20:02:21;;;;;;;2.17;1.60;;;30.80;27.90;;;;;;20911396;28;20077;-57
2021/07/05 20:12:23;;;;;;;2.90;1.30;;;30.60;28.40;;;;;;20910916;28;20049;-62
2021/07/05 20:22:26;;;;;;;7.05;2.35;;;30.40;28.70;;;;;;20918355;28;20076;-68
2021/07/05 20:32:28;;;;;;;4.30;1.25;;;30.20;29.10;;;;;;20926364;28;20497;-68
2021/07/05 20:42:30;;;;;;;4.18;1.80;;;30.00;29.50;;;;;;20925477;28;20080;-58
2021/07/05 20:52:32;;;;;;;1.95;1.60;;;29.80;29.90;;;;;;20924919;28;20048;-67
2021/07/05 21:02:33;;;;;;;4.43;1.70;;;29.60;31.00;;;;;;20923528;28;20049;-58
2021/07/05 21:12:36;;;;;;;10.57;2.05;;;29.40;32.10;;;;;;20923551;28;20079;-57
2021/07/05 21:22:38;;;;;;;6.22;4.63;;;29.30;32.90;;;;;;20922003;28;20093;-71
2021/07/05 21:32:40;;;;;;;1.83;1.27;;;29.10;33.40;;;;;;20920745;28;20056;-68
2021/07/05 21:42:43;;;;;;;3.10;1.70;;;29.10;33.90;;;;;;20922100;28;20159;-68
2021/07/05 21:52:46;;;;;;;1.65;1.20;;;28.90;33.80;;;;;;20919743;28;20134;-67
2021/07/05 22:02:48;;;;;;;1.75;0.90;;;28.80;33.00;;;;;;20920008;28;20135;-59
2021/07/05 22:12:52;;;;;;;2.83;1.00;;;28.60;32.10;;;;;;20918269;28;20045;-59
2021/07/05 22:22:56;;;;;;;1.48;1.02;;;28.40;32.20;;;;;;20918323;28;20053;-68
2021/07/05 22:32:58;;;;;;;2.50;1.00;;;28.30;31.80;;;;;;20917047;28;20056;-68
2021/07/05 22:43:00;;;;;;;1.50;1.00;;;28.20;32.00;;;;;;20917691;28;20040;-61
2021/07/05 22:53:02;;;;;;;1.58;0.90;;;27.90;32.80;;;;;;20916597;28;20175;-64
2021/07/05 23:03:06;;;;;;;2.90;1.13;;;27.90;33.10;;;;;;20916140;28;20047;-68
2021/07/05 23:13:09;;;;;;;3.25;1.13;;;27.80;33.60;;;;;;20915075;28;20056;-62
2021/07/05 23:23:11;;;;;;;3.03;1.73;;;27.70;34.10;;;;;;20915963;28;20053;-63
2021/07/05 23:33:13;;;;;;;4.72;1.27;;;27.60;34.20;;;;;;20913725;28;20060;-61
2021/07/05 23:43:14;;;;;;;1.85;1.00;;;27.60;34.70;;;;;;20912401;28;20049;-68
2021/07/05 23:53:16;;;;;;;3.72;1.20;;;27.40;34.90;;;;;;20912050;28;20052;-59
